createdAt,value
2018-04-13T00:00:25.679Z,988.35
2018-04-13T00:01:25.719Z,988.34
2018-04-13T00:02:25.756Z,988.37
2018-04-13T00:03:25.793Z,988.34
2018-04-13T00:04:25.834Z,988.39
2018-04-13T00:05:25.872Z,988.37
2018-04-13T00:06:25.908Z,988.35
2018-04-13T00:07:25.947Z,988.38
2018-04-13T00:08:25.985Z,988.36
2018-04-13T00:09:26.024Z,988.4
2018-04-13T00:10:26.062Z,988.39
2018-04-13T00:11:26.102Z,988.44
2018-04-13T00:12:26.138Z,988.43
2018-04-13T00:13:26.175Z,988.39
2018-04-13T00:14:26.213Z,988.4
2018-04-13T00:15:26.253Z,988.4
2018-04-13T00:16:26.292Z,988.46
2018-04-13T00:17:26.330Z,988.48
2018-04-13T00:18:26.369Z,988.42
2018-04-13T00:19:26.408Z,988.45
2018-04-13T00:20:26.448Z,988.47
2018-04-13T00:21:26.484Z,988.47
2018-04-13T00:22:26.522Z,988.47
2018-04-13T00:23:26.560Z,988.49
2018-04-13T00:24:26.601Z,988.53
2018-04-13T00:25:26.637Z,988.58
2018-04-13T00:26:26.673Z,988.57
2018-04-13T00:27:26.711Z,988.59
2018-04-13T00:28:26.752Z,988.57
2018-04-13T00:29:26.790Z,988.54
2018-04-13T00:30:26.831Z,988.5
2018-04-13T00:31:26.874Z,988.47
2018-04-13T00:32:26.905Z,988.5
2018-04-13T00:33:26.944Z,988.51
2018-04-13T00:34:26.981Z,988.51
2018-04-13T00:35:27.020Z,988.55
2018-04-13T00:36:27.059Z,988.56
2018-04-13T00:37:27.097Z,988.58
2018-04-13T00:38:27.133Z,988.54
2018-04-13T00:39:27.174Z,988.49
2018-04-13T00:40:27.211Z,988.48
2018-04-13T00:41:27.250Z,988.48
2018-04-13T00:42:27.287Z,988.47
2018-04-13T00:43:27.325Z,988.46
2018-04-13T00:44:27.366Z,988.49
2018-04-13T00:45:27.401Z,988.52
2018-04-13T00:46:27.440Z,988.51
2018-04-13T00:47:27.479Z,988.6
2018-04-13T00:48:27.521Z,988.6
2018-04-13T00:49:27.555Z,988.55
2018-04-13T00:50:27.592Z,988.59
2018-04-13T00:51:27.631Z,988.53
2018-04-13T00:52:27.669Z,988.57
2018-04-13T00:53:27.708Z,988.52
2018-04-13T00:54:27.746Z,988.52
2018-04-13T00:55:27.793Z,988.58
2018-04-13T00:56:27.823Z,988.54
2018-04-13T00:57:27.860Z,988.58
2018-04-13T00:58:27.900Z,988.57
2018-04-13T00:59:27.939Z,988.6
2018-04-13T01:00:27.977Z,988.62
2018-04-13T01:01:28.014Z,988.62
2018-04-13T01:02:28.051Z,988.67
2018-04-13T01:03:28.092Z,988.61
2018-04-13T01:04:28.130Z,988.63
2018-04-13T01:05:28.169Z,988.62
2018-04-13T01:06:28.205Z,988.63
2018-04-13T01:07:28.243Z,988.62
2018-04-13T01:08:28.283Z,988.64
2018-04-13T01:09:28.320Z,988.59
2018-04-13T01:10:28.361Z,988.62
2018-04-13T01:11:28.397Z,988.67
2018-04-13T01:12:28.436Z,988.65
2018-04-13T01:13:28.473Z,988.65
2018-04-13T01:14:28.512Z,988.67
2018-04-13T01:15:28.558Z,988.66
2018-04-13T01:16:28.587Z,988.68
2018-04-13T01:17:28.626Z,988.68
2018-04-13T01:18:28.665Z,988.71
2018-04-13T01:19:28.702Z,988.72
2018-04-13T01:20:28.741Z,988.64
2018-04-13T01:21:28.779Z,988.69
2018-04-13T01:22:28.816Z,988.68
2018-04-13T01:23:28.859Z,988.65
2018-04-13T01:24:28.892Z,988.67
2018-04-13T01:25:28.933Z,988.66
2018-04-13T01:26:28.969Z,988.69
2018-04-13T01:27:29.007Z,988.71
2018-04-13T01:28:29.047Z,988.67
2018-04-13T01:29:29.083Z,988.67
2018-04-13T01:30:29.121Z,988.69
2018-04-13T01:31:29.159Z,988.69
2018-04-13T01:32:29.201Z,988.67
2018-04-13T01:33:29.235Z,988.63
2018-04-13T01:34:29.274Z,988.65
2018-04-13T01:35:29.315Z,988.68
2018-04-13T01:36:29.349Z,988.71
2018-04-13T01:37:29.389Z,988.73
2018-04-13T01:38:29.425Z,988.72
2018-04-13T01:39:29.465Z,988.76
2018-04-13T01:40:29.501Z,988.76
2018-04-13T01:41:29.541Z,988.74
2018-04-13T01:42:29.580Z,988.78
2018-04-13T01:43:29.619Z,988.76
2018-04-13T01:44:29.655Z,988.77
2018-04-13T01:45:29.692Z,988.76
2018-04-13T01:46:29.735Z,988.7
2018-04-13T01:47:29.768Z,988.72
2018-04-13T01:48:29.807Z,988.72
2018-04-13T01:49:29.844Z,988.7
2018-04-13T01:50:29.885Z,988.71
2018-04-13T01:51:29.922Z,988.73
2018-04-13T01:52:29.967Z,988.73
2018-04-13T01:53:29.997Z,988.7
2018-04-13T01:54:30.035Z,988.68
2018-04-13T01:55:30.074Z,988.66
2018-04-13T01:56:30.112Z,988.58
2018-04-13T01:57:30.148Z,988.6
2018-04-13T01:58:30.185Z,988.55
2018-04-13T01:59:30.225Z,988.58
2018-04-13T02:00:30.265Z,988.63
2018-04-13T02:01:30.303Z,988.62
2018-04-13T02:02:30.340Z,988.62
2018-04-13T02:03:30.376Z,988.64
2018-04-13T02:04:30.416Z,988.6
2018-04-13T02:05:30.454Z,988.62
2018-04-13T02:06:30.491Z,988.58
2018-04-13T02:07:30.528Z,988.56
2018-04-13T02:08:30.566Z,988.55
2018-04-13T02:09:30.605Z,988.54
2018-04-13T02:10:30.642Z,988.55
2018-04-13T02:11:30.681Z,988.58
2018-04-13T02:12:30.724Z,988.64
2018-04-13T02:13:30.755Z,988.7
2018-04-13T02:14:30.793Z,988.76
2018-04-13T02:15:30.832Z,988.76
2018-04-13T02:16:30.871Z,988.78
2018-04-13T02:17:30.906Z,988.77
2018-04-13T02:18:30.946Z,988.73
2018-04-13T02:19:30.984Z,988.71
2018-04-13T02:20:31.021Z,988.67
2018-04-13T02:21:31.059Z,988.69
2018-04-13T02:22:31.098Z,988.66
2018-04-13T02:23:31.135Z,988.69
2018-04-13T02:24:31.172Z,988.65
2018-04-13T02:25:31.209Z,988.65
2018-04-13T02:26:31.247Z,988.66
2018-04-13T02:27:31.307Z,988.64
2018-04-13T02:28:31.333Z,988.73
2018-04-13T02:29:31.362Z,988.79
2018-04-13T02:30:31.400Z,988.76
2018-04-13T02:31:31.436Z,988.75
2018-04-13T02:32:31.482Z,988.7
2018-04-13T02:33:31.511Z,988.7
2018-04-13T02:34:31.627Z,988.71
2018-04-13T02:35:31.588Z,988.71
2018-04-13T02:36:31.624Z,988.76
2018-04-13T02:37:31.668Z,988.73
2018-04-13T02:38:31.699Z,988.79
2018-04-13T02:39:31.743Z,988.79
2018-04-13T02:40:31.777Z,988.81
2018-04-13T02:41:31.815Z,988.75
2018-04-13T02:42:31.852Z,988.8
2018-04-13T02:43:31.890Z,988.77
2018-04-13T02:44:31.929Z,988.78
2018-04-13T02:45:31.966Z,988.8
2018-04-13T02:46:32.002Z,988.82
2018-04-13T02:47:32.042Z,988.83
2018-04-13T02:48:32.080Z,988.81
2018-04-13T02:49:32.116Z,988.82
2018-04-13T02:50:32.157Z,988.84
2018-04-13T02:51:32.194Z,988.86
2018-04-13T02:52:32.230Z,988.81
2018-04-13T02:53:32.272Z,988.83
2018-04-13T02:54:32.304Z,988.8
2018-04-13T02:55:32.342Z,988.81
2018-04-13T02:56:32.380Z,988.8
2018-04-13T02:57:32.417Z,988.88
2018-04-13T02:58:32.455Z,988.89
2018-04-13T02:59:32.491Z,988.85
2018-04-13T03:00:32.529Z,988.81
2018-04-13T03:01:32.571Z,988.85
2018-04-13T03:02:32.605Z,988.83
2018-04-13T03:03:32.641Z,988.8
2018-04-13T03:04:32.680Z,988.84
2018-04-13T03:05:32.718Z,988.78
2018-04-13T03:06:32.755Z,988.81
2018-04-13T03:07:32.812Z,988.73
2018-04-13T03:08:32.828Z,988.75
2018-04-13T03:09:32.869Z,988.77
2018-04-13T03:10:32.913Z,988.77
2018-04-13T03:11:32.940Z,988.8
2018-04-13T03:12:32.980Z,988.79
2018-04-13T03:13:33.050Z,988.79
2018-04-13T03:14:33.055Z,988.73
2018-04-13T03:15:33.093Z,988.77
2018-04-13T03:16:33.130Z,988.75
2018-04-13T03:17:33.169Z,988.74
2018-04-13T03:18:33.218Z,988.77
2018-04-13T03:19:33.244Z,988.75
2018-04-13T03:20:33.281Z,988.8
2018-04-13T03:21:33.320Z,988.73
2018-04-13T03:22:33.359Z,988.79
2018-04-13T03:23:33.395Z,988.72
2018-04-13T03:24:33.432Z,988.73
2018-04-13T03:25:33.474Z,988.66
2018-04-13T03:26:33.506Z,988.73
2018-04-13T03:27:33.545Z,988.67
2018-04-13T03:28:33.583Z,988.67
2018-04-13T03:29:33.621Z,988.62
2018-04-13T03:30:33.656Z,988.56
2018-04-13T03:31:33.696Z,988.59
2018-04-13T03:32:33.730Z,988.59
2018-04-13T03:33:33.769Z,988.55
2018-04-13T03:34:33.806Z,988.56
2018-04-13T03:35:33.844Z,988.58
2018-04-13T03:36:33.884Z,988.57
2018-04-13T03:37:33.919Z,988.65
2018-04-13T03:38:33.957Z,988.62
2018-04-13T03:39:33.993Z,988.66
2018-04-13T03:40:34.034Z,988.64
2018-04-13T03:41:34.068Z,988.66
2018-04-13T03:42:34.106Z,988.64
2018-04-13T03:43:34.147Z,988.63
2018-04-13T03:44:34.180Z,988.67
2018-04-13T03:45:34.221Z,988.74
2018-04-13T03:46:34.257Z,988.75
2018-04-13T03:47:34.297Z,988.74
2018-04-13T03:48:34.334Z,988.77
2018-04-13T03:49:34.370Z,988.77
2018-04-13T03:50:34.408Z,988.75
2018-04-13T03:51:34.446Z,988.76
2018-04-13T03:52:34.483Z,988.77
2018-04-13T03:53:34.519Z,988.77
2018-04-13T03:54:34.606Z,988.78
2018-04-13T03:55:34.594Z,988.75
2018-04-13T03:56:34.635Z,988.73
2018-04-13T03:57:34.670Z,988.77
2018-04-13T03:58:34.709Z,988.71
2018-04-13T03:59:34.751Z,988.75
2018-04-13T04:00:34.785Z,988.7
2018-04-13T04:01:34.821Z,988.72
2018-04-13T04:02:34.862Z,988.73
2018-04-13T04:03:34.894Z,988.68
2018-04-13T04:04:34.933Z,988.72
2018-04-13T04:05:34.973Z,988.76
2018-04-13T04:06:35.010Z,988.82
2018-04-13T04:07:35.045Z,988.86
2018-04-13T04:08:35.085Z,988.83
2018-04-13T04:09:35.121Z,988.84
2018-04-13T04:10:35.161Z,988.89
2018-04-13T04:11:35.214Z,988.92
2018-04-13T04:12:35.234Z,988.92
2018-04-13T04:13:35.275Z,988.95
2018-04-13T04:14:35.310Z,988.95
2018-04-13T04:15:35.347Z,988.95
2018-04-13T04:16:35.386Z,988.98
2018-04-13T04:17:35.425Z,989.01
2018-04-13T04:18:35.462Z,988.99
2018-04-13T04:19:35.500Z,989.01
2018-04-13T04:20:35.538Z,988.99
2018-04-13T04:21:35.575Z,989.01
2018-04-13T04:22:35.611Z,988.94
2018-04-13T04:23:35.659Z,988.96
2018-04-13T04:24:35.688Z,988.95
2018-04-13T04:25:35.741Z,989.02
2018-04-13T04:26:35.763Z,989.01
2018-04-13T04:27:35.802Z,989.02
2018-04-13T04:28:35.845Z,989.02
2018-04-13T04:29:35.875Z,989.03
2018-04-13T04:30:35.914Z,989.04
2018-04-13T04:31:35.951Z,989.1
2018-04-13T04:32:35.989Z,989.16
2018-04-13T04:33:36.027Z,989.1
2018-04-13T04:34:36.120Z,989.11
2018-04-13T04:35:36.101Z,989.09
2018-04-13T04:36:36.142Z,989.09
2018-04-13T04:37:36.178Z,989.1
2018-04-13T04:38:36.215Z,989.11
2018-04-13T04:39:36.256Z,989.15
2018-04-13T04:40:36.290Z,989.2
2018-04-13T04:41:36.327Z,989.23
2018-04-13T04:42:36.366Z,989.24
2018-04-13T04:43:36.404Z,989.26
2018-04-13T04:44:36.441Z,989.27
2018-04-13T04:45:36.480Z,989.32
2018-04-13T04:46:36.516Z,989.33
2018-04-13T04:47:36.553Z,989.33
2018-04-13T04:48:36.593Z,989.34
2018-04-13T04:49:36.627Z,989.39
2018-04-13T04:50:36.664Z,989.38
2018-04-13T04:51:36.704Z,989.38
2018-04-13T04:52:36.743Z,989.37
2018-04-13T04:53:36.780Z,989.38
2018-04-13T04:54:36.816Z,989.41
2018-04-13T04:55:36.855Z,989.44
2018-04-13T04:56:36.899Z,989.43
2018-04-13T04:57:36.929Z,989.42
2018-04-13T04:58:36.974Z,989.43
2018-04-13T04:59:37.066Z,989.45
2018-04-13T05:00:37.043Z,989.43
2018-04-13T05:01:37.081Z,989.45
2018-04-13T05:02:37.119Z,989.47
2018-04-13T05:03:37.156Z,989.47
2018-04-13T05:04:37.196Z,989.53
2018-04-13T05:05:37.231Z,989.55
2018-04-13T05:06:37.270Z,989.53
2018-04-13T05:07:37.310Z,989.58
2018-04-13T05:08:37.345Z,989.64
2018-04-13T05:09:37.507Z,989.65
2018-04-13T05:10:37.421Z,989.63
2018-04-13T05:11:37.457Z,989.65
2018-04-13T05:12:37.497Z,989.68
2018-04-13T05:13:37.533Z,989.66
2018-04-13T05:14:37.571Z,989.69
2018-04-13T05:15:37.608Z,989.75
2018-04-13T05:16:37.645Z,989.73
2018-04-13T05:17:37.683Z,989.78
2018-04-13T05:18:37.722Z,989.78
2018-04-13T05:19:37.762Z,989.79
2018-04-13T05:20:37.797Z,989.77
2018-04-13T05:21:37.837Z,989.83
2018-04-13T05:22:37.873Z,989.79
2018-04-13T05:23:37.915Z,989.81
2018-04-13T05:24:37.949Z,989.79
2018-04-13T05:25:37.987Z,989.77
2018-04-13T05:26:38.024Z,989.76
2018-04-13T05:27:38.061Z,989.78
2018-04-13T05:28:38.100Z,989.81
2018-04-13T05:29:38.138Z,989.75
2018-04-13T05:30:38.177Z,989.72
2018-04-13T05:31:38.214Z,989.75
2018-04-13T05:32:38.252Z,989.72
2018-04-13T05:33:38.291Z,989.73
2018-04-13T05:34:38.326Z,989.73
2018-04-13T05:35:38.368Z,989.69
2018-04-13T05:36:38.406Z,989.7
2018-04-13T05:37:38.440Z,989.66
2018-04-13T05:38:38.479Z,989.64
2018-04-13T05:39:38.517Z,989.64
2018-04-13T05:40:38.553Z,989.6
2018-04-13T05:41:38.650Z,989.68
2018-04-13T05:42:38.669Z,989.63
2018-04-13T05:43:38.666Z,989.61
2018-04-13T05:44:38.703Z,989.64
2018-04-13T05:45:38.744Z,989.63
2018-04-13T05:46:38.779Z,989.68
2018-04-13T05:47:38.820Z,989.68
2018-04-13T05:48:38.901Z,989.7
2018-04-13T05:49:38.902Z,989.69
2018-04-13T05:50:38.941Z,989.74
2018-04-13T05:51:38.970Z,989.68
2018-04-13T05:52:39.009Z,989.71
2018-04-13T05:53:39.115Z,989.71
2018-04-13T05:54:39.108Z,989.69
2018-04-13T05:55:39.122Z,989.66
2018-04-13T05:56:39.160Z,989.68
2018-04-13T05:57:39.198Z,989.68
2018-04-13T05:58:39.238Z,989.63
2018-04-13T05:59:39.273Z,989.64
2018-04-13T06:00:39.311Z,989.62
2018-04-13T06:01:39.350Z,989.6
2018-04-13T06:02:39.390Z,989.63
2018-04-13T06:03:39.424Z,989.59
2018-04-13T06:04:39.467Z,989.58
2018-04-13T06:05:39.502Z,989.59
2018-04-13T06:06:39.539Z,989.56
2018-04-13T06:07:39.579Z,989.58
2018-04-13T06:08:39.616Z,989.57
2018-04-13T06:09:39.656Z,989.55
2018-04-13T06:10:39.691Z,989.57
2018-04-13T06:11:39.730Z,989.53
2018-04-13T06:12:39.768Z,989.54
2018-04-13T06:13:39.806Z,989.56
2018-04-13T06:14:39.846Z,989.54
2018-04-13T06:15:39.882Z,989.51
2018-04-13T06:16:39.940Z,989.5
2018-04-13T06:17:39.961Z,989.5
2018-04-13T06:18:39.994Z,989.46
2018-04-13T06:19:40.040Z,989.51
2018-04-13T06:20:40.075Z,989.46
2018-04-13T06:21:40.131Z,989.45
2018-04-13T06:22:40.151Z,989.43
2018-04-13T06:23:40.192Z,989.44
2018-04-13T06:24:40.231Z,989.39
2018-04-13T06:25:40.289Z,989.35
2018-04-13T06:26:40.303Z,989.39
2018-04-13T06:27:40.341Z,989.38
2018-04-13T06:28:40.378Z,989.44
2018-04-13T06:29:40.501Z,989.44
2018-04-13T06:30:40.466Z,989.49
2018-04-13T06:31:40.492Z,989.54
2018-04-13T06:32:40.531Z,989.54
2018-04-13T06:33:40.621Z,989.55
2018-04-13T06:34:40.624Z,989.6
2018-04-13T06:35:40.651Z,989.53
2018-04-13T06:36:40.692Z,989.59
2018-04-13T06:37:40.723Z,989.55
2018-04-13T06:38:40.766Z,989.62
2018-04-13T06:39:40.802Z,989.65
2018-04-13T06:40:40.838Z,989.66
2018-04-13T06:41:40.979Z,989.7
2018-04-13T06:42:40.913Z,989.7
2018-04-13T06:43:41.154Z,989.74
2018-04-13T06:44:40.997Z,989.72
2018-04-13T06:45:41.035Z,989.75
2018-04-13T06:46:41.069Z,989.75
2018-04-13T06:47:41.102Z,989.75
2018-04-13T06:48:41.145Z,989.74
2018-04-13T06:49:41.177Z,989.77
2018-04-13T06:50:41.219Z,989.75
2018-04-13T06:51:41.253Z,989.77
2018-04-13T06:52:41.292Z,989.82
2018-04-13T06:53:42.073Z,989.86
2018-04-13T06:54:41.374Z,989.87
2018-04-13T06:55:41.406Z,989.89
2018-04-13T06:56:41.482Z,989.93
2018-04-13T06:57:41.483Z,989.93
2018-04-13T06:58:41.524Z,989.92
2018-04-13T06:59:41.559Z,989.86
2018-04-13T07:00:41.600Z,989.82
2018-04-13T07:01:41.638Z,989.82
2018-04-13T07:02:41.673Z,989.8
2018-04-13T07:03:41.715Z,989.77
2018-04-13T07:04:41.752Z,989.75
2018-04-13T07:05:41.788Z,989.74
2018-04-13T07:06:41.826Z,989.78
2018-04-13T07:07:41.867Z,989.71
2018-04-13T07:08:41.902Z,989.78
2018-04-13T07:09:41.942Z,989.8
2018-04-13T07:10:41.982Z,989.82
2018-04-13T07:11:42.017Z,989.78
2018-04-13T07:12:42.056Z,989.83
2018-04-13T07:13:42.151Z,989.83
2018-04-13T07:14:42.134Z,989.88
2018-04-13T07:15:42.170Z,989.76
2018-04-13T07:16:42.207Z,989.78
2018-04-13T07:17:42.295Z,989.88
2018-04-13T07:18:42.289Z,989.88
2018-04-13T07:19:42.325Z,989.9
2018-04-13T07:20:42.360Z,989.83
2018-04-13T07:21:42.402Z,989.79
2018-04-13T07:22:42.447Z,989.83
2018-04-13T07:23:42.476Z,989.95
2018-04-13T07:24:42.565Z,989.89
2018-04-13T07:25:42.555Z,989.78
2018-04-13T07:26:42.608Z,989.94
2018-04-13T07:27:42.631Z,990.02
2018-04-13T07:28:42.674Z,989.96
2018-04-13T07:29:42.711Z,989.98
2018-04-13T07:30:42.747Z,990.05
2018-04-13T07:31:42.783Z,990.14
2018-04-13T07:32:42.824Z,989.95
2018-04-13T07:33:42.864Z,990.03
2018-04-13T07:34:42.897Z,990.04
2018-04-13T07:35:42.936Z,989.98
2018-04-13T07:36:43.209Z,990.02
2018-04-13T07:37:43.015Z,990.02
2018-04-13T07:38:43.057Z,990.04
2018-04-13T07:39:43.090Z,990.02
2018-04-13T07:40:43.129Z,990.03
2018-04-13T07:41:43.167Z,990.16
2018-04-13T07:42:43.649Z,990.05
2018-04-13T07:43:43.245Z,990.01
2018-04-13T07:44:43.283Z,990.04
2018-04-13T07:45:43.321Z,990.02
2018-04-13T07:46:43.357Z,989.99
2018-04-13T07:47:43.397Z,990.03
2018-04-13T07:48:44.024Z,990.07
2018-04-13T07:49:43.473Z,990.19
2018-04-13T07:50:43.514Z,989.97
2018-04-13T07:51:43.551Z,989.96
2018-04-13T07:52:43.590Z,989.96
2018-04-13T07:53:43.628Z,990.01
2018-04-13T07:54:43.671Z,990.02
2018-04-13T07:55:43.704Z,990.01
2018-04-13T07:56:43.743Z,990
2018-04-13T07:57:43.782Z,990.08
2018-04-13T07:58:43.820Z,990.07
2018-04-13T07:59:43.898Z,990.05
2018-04-13T08:00:43.904Z,990.1
2018-04-13T08:01:43.936Z,990.13
2018-04-13T08:02:43.972Z,990.08
2018-04-13T08:03:44.012Z,990.18
2018-04-13T08:04:44.052Z,990.14
2018-04-13T08:05:44.088Z,990.17
2018-04-13T08:06:44.249Z,990.17
2018-04-13T08:07:44.166Z,990.18
2018-04-13T08:08:44.204Z,990.21
2018-04-13T08:09:44.246Z,990.21
2018-04-13T08:10:44.282Z,990.19
2018-04-13T08:11:44.322Z,990.25
2018-04-13T08:12:44.360Z,990.16
2018-04-13T08:13:44.398Z,990.18
2018-04-13T08:14:44.438Z,990.18
2018-04-13T08:15:44.475Z,990.12
2018-04-13T08:16:44.517Z,990.15
2018-04-13T08:17:44.556Z,990.11
2018-04-13T08:18:44.596Z,990.15
2018-04-13T08:19:44.635Z,990.11
2018-04-13T08:20:44.674Z,990.09
2018-04-13T08:21:44.715Z,990.1
2018-04-13T08:22:44.754Z,990.15
2018-04-13T08:23:44.792Z,990.14
2018-04-13T08:24:44.840Z,990.17
2018-04-13T08:25:44.875Z,990.37
2018-04-13T08:26:44.917Z,990.22
2018-04-13T08:27:44.956Z,990.25
2018-04-13T08:28:44.993Z,990.27
2018-04-13T08:29:45.056Z,990.23
2018-04-13T08:30:45.074Z,990.18
2018-04-13T08:31:45.113Z,990.23
2018-04-13T08:32:45.151Z,990.36
2018-04-13T08:33:45.210Z,990.24
2018-04-13T08:34:45.231Z,990.15
2018-04-13T08:35:45.295Z,990.24
2018-04-13T08:36:45.336Z,990.45
2018-04-13T08:37:45.355Z,990.21
2018-04-13T08:38:45.391Z,990.19
2018-04-13T08:39:45.447Z,990.25
2018-04-13T08:40:45.473Z,990.3
2018-04-13T08:41:45.508Z,990.26
2018-04-13T08:42:45.548Z,990.31
2018-04-13T08:43:45.588Z,990.29
2018-04-13T08:44:45.627Z,990.59
2018-04-13T08:45:45.667Z,990.51
2018-04-13T08:46:45.707Z,990.34
2018-04-13T08:47:45.751Z,990.28
2018-04-13T08:48:45.827Z,990.26
2018-04-13T08:49:45.828Z,990.31
2018-04-13T08:50:45.869Z,990.2
2018-04-13T08:51:45.904Z,990.48
2018-04-13T08:52:45.944Z,990.29
2018-04-13T08:53:45.983Z,990.17
2018-04-13T08:54:46.021Z,990.23
2018-04-13T08:55:46.063Z,990.19
2018-04-13T08:56:46.101Z,990.25
2018-04-13T08:57:46.221Z,990.24
2018-04-13T08:58:46.181Z,990.19
2018-04-13T08:59:46.222Z,990.23
2018-04-13T09:00:46.261Z,990.32
2018-04-13T09:01:46.303Z,990.26
2018-04-13T09:02:46.343Z,990.31
2018-04-13T09:03:46.381Z,990.48
2018-04-13T09:04:46.426Z,990.41
2018-04-13T09:05:46.469Z,990.42
2018-04-13T09:06:46.506Z,990.42
2018-04-13T09:07:46.573Z,990.47
2018-04-13T09:08:46.591Z,990.52
2018-04-13T09:09:46.634Z,990.42
2018-04-13T09:10:46.676Z,990.46
2018-04-13T09:11:46.733Z,990.48
2018-04-13T09:12:46.763Z,990.44
2018-04-13T09:13:46.806Z,990.76
2018-04-13T09:14:46.848Z,990.51
2018-04-13T09:15:46.888Z,990.42
2018-04-13T09:16:46.932Z,990.37
2018-04-13T09:17:46.977Z,990.46
2018-04-13T09:18:47.018Z,990.58
2018-04-13T09:19:47.056Z,990.45
2018-04-13T09:20:47.158Z,990.59
2018-04-13T09:21:47.138Z,990.5
2018-04-13T09:22:47.179Z,990.47
2018-04-13T09:23:47.220Z,990.57
2018-04-13T09:24:47.261Z,990.67
2018-04-13T09:25:47.301Z,990.43
2018-04-13T09:26:47.342Z,990.6
2018-04-13T09:27:47.383Z,990.61
2018-04-13T09:28:47.424Z,990.4
2018-04-13T09:29:47.469Z,990.41
2018-04-13T09:30:47.507Z,990.48
2018-04-13T09:31:47.545Z,990.5
2018-04-13T09:32:47.584Z,990.43
2018-04-13T09:33:47.625Z,990.46
2018-04-13T09:34:47.665Z,990.44
2018-04-13T09:35:47.704Z,990.45
2018-04-13T09:36:47.744Z,990.47
2018-04-13T09:37:47.785Z,990.45
2018-04-13T09:38:47.823Z,990.49
2018-04-13T09:39:47.863Z,990.43
2018-04-13T09:40:47.905Z,990.41
2018-04-13T09:41:47.942Z,990.53
2018-04-13T09:42:47.982Z,990.44
2018-04-13T09:43:48.024Z,990.43
2018-04-13T09:44:48.063Z,990.39
2018-04-13T09:45:48.103Z,990.43
2018-04-13T09:46:48.143Z,990.42
2018-04-13T09:47:48.183Z,990.39
2018-04-13T09:48:48.221Z,990.37
2018-04-13T09:49:48.261Z,990.38
2018-04-13T09:50:48.301Z,990.4
2018-04-13T09:51:48.342Z,990.38
2018-04-13T09:52:48.491Z,990.42
2018-04-13T09:53:48.421Z,990.43
2018-04-13T09:54:48.462Z,990.44
2018-04-13T09:55:48.504Z,990.43
2018-04-13T09:56:48.544Z,990.33
2018-04-13T09:57:48.602Z,990.32
2018-04-13T09:58:48.628Z,990.3
2018-04-13T09:59:48.669Z,990.31
2018-04-13T10:00:48.710Z,990.24
2018-04-13T10:01:48.759Z,990.27
2018-04-13T10:02:48.793Z,990.35
2018-04-13T10:03:48.852Z,990.43
2018-04-13T10:04:48.876Z,990.33
2018-04-13T10:05:48.919Z,990.37
2018-04-13T10:06:48.971Z,990.42
2018-04-13T10:07:49.004Z,990.31
2018-04-13T10:08:49.045Z,990.44
2018-04-13T10:09:49.095Z,990.46
2018-04-13T10:10:49.135Z,990.42
2018-04-13T10:11:49.178Z,990.49
2018-04-13T10:12:49.223Z,990.46
2018-04-13T10:13:49.269Z,990.3
2018-04-13T10:14:49.316Z,990.3
2018-04-13T10:15:49.358Z,990.31
2018-04-13T10:16:49.405Z,990.43
2018-04-13T10:17:49.453Z,990.35
2018-04-13T10:18:49.500Z,990.3
2018-04-13T10:19:49.544Z,990.27
2018-04-13T10:20:49.592Z,990.21
2018-04-13T10:21:49.637Z,990.23
2018-04-13T10:22:49.682Z,990.16
2018-04-13T10:23:49.728Z,990.23
2018-04-13T10:24:49.773Z,990.26
2018-04-13T10:25:49.818Z,990.32
2018-04-13T10:26:49.881Z,990.31
2018-04-13T10:27:49.906Z,990.23
2018-04-13T10:28:49.951Z,990.26
2018-04-13T10:29:49.997Z,990.35
2018-04-13T10:30:50.037Z,990.4
2018-04-13T10:31:50.080Z,990.32
2018-04-13T10:32:50.128Z,990.34
2018-04-13T10:33:50.171Z,990.26
2018-04-13T10:34:50.223Z,990.32
2018-04-13T10:35:50.257Z,990.22
2018-04-13T10:36:50.301Z,990.3
2018-04-13T10:37:50.345Z,990.33
2018-04-13T10:38:50.388Z,990.29
2018-04-13T10:39:50.437Z,990.24
2018-04-13T10:40:50.475Z,990.21
2018-04-13T10:41:50.516Z,990.21
2018-04-13T10:42:50.564Z,990.16
2018-04-13T10:43:50.603Z,990.22
2018-04-13T10:44:50.644Z,990.34
2018-04-13T10:45:50.689Z,990.22
2018-04-13T10:46:50.729Z,990.35
2018-04-13T10:47:50.772Z,990.35
2018-04-13T10:48:50.814Z,990.92
2018-04-13T10:49:50.857Z,990.5
2018-04-13T10:50:50.899Z,990.65
2018-04-13T10:51:50.938Z,990.37
2018-04-13T10:52:50.980Z,990.33
2018-04-13T10:53:51.020Z,990.32
2018-04-13T10:54:51.063Z,990.26
2018-04-13T10:55:51.104Z,990.34
2018-04-13T10:56:51.146Z,990.49
2018-04-13T10:57:51.185Z,990.36
2018-04-13T10:58:51.228Z,990.53
2018-04-13T10:59:51.267Z,990.38
2018-04-13T11:00:51.307Z,990.46
2018-04-13T11:01:51.349Z,990.49
2018-04-13T11:02:51.395Z,990.38
2018-04-13T11:03:51.429Z,990.4
2018-04-13T11:04:51.470Z,990.35
2018-04-13T11:05:51.511Z,990.37
2018-04-13T11:06:51.550Z,990.35
2018-04-13T11:07:51.593Z,990.32
2018-04-13T11:08:51.633Z,990.28
2018-04-13T11:09:51.672Z,990.38
2018-04-13T11:10:51.713Z,990.46
2018-04-13T11:11:51.752Z,990.35
2018-04-13T11:12:51.794Z,990.4
2018-04-13T11:13:51.831Z,990.44
2018-04-13T11:14:51.873Z,990.34
2018-04-13T11:15:51.913Z,990.43
2018-04-13T11:16:52.009Z,990.45
2018-04-13T11:17:51.992Z,990.43
2018-04-13T11:18:52.031Z,990.5
2018-04-13T11:19:52.080Z,990.55
2018-04-13T11:20:52.129Z,990.51
2018-04-13T11:21:52.159Z,990.52
2018-04-13T11:22:52.193Z,990.54
2018-04-13T11:23:52.237Z,990.54
2018-04-13T11:24:52.317Z,990.48
2018-04-13T11:25:52.313Z,990.5
2018-04-13T11:26:52.353Z,990.39
2018-04-13T11:27:52.391Z,990.4
2018-04-13T11:28:52.432Z,990.33
2018-04-13T11:29:52.472Z,990.34
2018-04-13T11:30:52.525Z,990.34
2018-04-13T11:31:52.557Z,990.32
2018-04-13T11:32:52.594Z,990.35
2018-04-13T11:33:52.637Z,990.39
2018-04-13T11:34:52.677Z,990.42
2018-04-13T11:35:52.714Z,990.58
2018-04-13T11:36:52.753Z,990.41
2018-04-13T11:37:52.796Z,990.48
2018-04-13T11:38:52.836Z,990.53
2018-04-13T11:39:52.878Z,990.44
2018-04-13T11:40:52.917Z,990.41
2018-04-13T11:41:52.958Z,990.41
2018-04-13T11:42:52.996Z,990.43
2018-04-13T11:43:53.039Z,990.43
2018-04-13T11:44:53.078Z,990.46
2018-04-13T11:45:53.120Z,990.57
2018-04-13T11:46:53.159Z,990.58
2018-04-13T11:47:53.200Z,990.49
2018-04-13T11:48:53.241Z,990.55
2018-04-13T11:49:53.287Z,990.46
2018-04-13T11:50:53.322Z,990.53
2018-04-13T11:51:53.380Z,990.65
2018-04-13T11:52:53.405Z,990.59
2018-04-13T11:53:53.446Z,990.51
2018-04-13T11:54:53.485Z,990.47
2018-04-13T11:55:53.526Z,990.51
2018-04-13T11:56:53.570Z,990.48
2018-04-13T11:57:53.615Z,990.48
2018-04-13T11:58:53.651Z,990.54
2018-04-13T11:59:53.694Z,990.45
2018-04-13T12:00:53.734Z,990.53
2018-04-13T12:01:53.775Z,990.54
2018-04-13T12:02:53.818Z,990.47
2018-04-13T12:03:53.858Z,990.61
2018-04-13T12:04:53.900Z,990.65
2018-04-13T12:05:53.943Z,990.72
2018-04-13T12:06:54.015Z,990.52
2018-04-13T12:07:54.030Z,990.5
2018-04-13T12:08:54.068Z,990.54
2018-04-13T12:09:54.109Z,990.62
2018-04-13T12:10:54.151Z,990.56
2018-04-13T12:11:54.193Z,990.53
2018-04-13T12:12:54.235Z,990.71
2018-04-13T12:13:54.275Z,990.65
2018-04-13T12:14:54.318Z,990.65
2018-04-13T12:15:54.361Z,990.6
2018-04-13T12:16:54.400Z,990.91
2018-04-13T12:17:54.444Z,990.67
2018-04-13T12:18:54.484Z,990.8
2018-04-13T12:19:54.526Z,990.67
2018-04-13T12:20:54.571Z,990.58
2018-04-13T12:21:54.610Z,990.69
2018-04-13T12:22:54.652Z,990.65
2018-04-13T12:23:54.691Z,990.69
2018-04-13T12:24:54.733Z,990.61
2018-04-13T12:25:54.775Z,990.68
2018-04-13T12:26:54.816Z,990.64
2018-04-13T12:27:54.859Z,990.74
2018-04-13T12:28:54.900Z,990.8
2018-04-13T12:29:54.939Z,990.67
2018-04-13T12:30:54.981Z,990.8